sensor_id;sensor_type;location;lat;lon;timestamp;P1;durP1;ratioP1;P2;durP2;ratioP2
54743;SDS011;40639;53.170;6.728;2023-12-28T00:01:30;4.15;;;2.53;;
54743;SDS011;40639;53.170;6.728;2023-12-28T00:03:56;5.07;;;2.28;;
54743;SDS011;40639;53.170;6.728;2023-12-28T00:06:23;4.97;;;2.65;;
54743;SDS011;40639;53.170;6.728;2023-12-28T00:08:49;4.47;;;2.58;;
54743;SDS011;40639;53.170;6.728;2023-12-28T00:11:15;3.63;;;2.40;;
54743;SDS011;40639;53.170;6.728;2023-12-28T00:13:41;3.60;;;2.33;;
54743;SDS011;40639;53.170;6.728;2023-12-28T00:16:07;6.07;;;2.70;;
54743;SDS011;40639;53.170;6.728;2023-12-28T00:18:34;4.85;;;2.60;;
54743;SDS011;40639;53.170;6.728;2023-12-28T00:21:00;5.43;;;2.60;;
54743;SDS011;40639;53.170;6.728;2023-12-28T00:23:26;6.40;;;2.88;;
54743;SDS011;40639;53.170;6.728;2023-12-28T00:25:52;5.13;;;2.55;;
54743;SDS011;40639;53.170;6.728;2023-12-28T00:28:18;4.53;;;2.58;;
54743;SDS011;40639;53.170;6.728;2023-12-28T00:30:44;6.10;;;3.03;;
54743;SDS011;40639;53.170;6.728;2023-12-28T00:33:10;4.95;;;2.72;;
54743;SDS011;40639;53.170;6.728;2023-12-28T00:35:36;4.50;;;2.45;;
54743;SDS011;40639;53.170;6.728;2023-12-28T00:38:02;6.00;;;3.03;;
54743;SDS011;40639;53.170;6.728;2023-12-28T00:40:29;5.53;;;2.97;;
54743;SDS011;40639;53.170;6.728;2023-12-28T00:42:55;5.78;;;2.88;;
54743;SDS011;40639;53.170;6.728;2023-12-28T00:45:21;5.45;;;3.28;;
54743;SDS011;40639;53.170;6.728;2023-12-28T00:47:48;6.35;;;3.00;;
54743;SDS011;40639;53.170;6.728;2023-12-28T00:50:15;4.65;;;2.90;;
54743;SDS011;40639;53.170;6.728;2023-12-28T00:52:41;4.80;;;3.00;;
54743;SDS011;40639;53.170;6.728;2023-12-28T00:55:07;5.03;;;2.60;;
54743;SDS011;40639;53.170;6.728;2023-12-28T00:57:34;7.28;;;2.80;;
54743;SDS011;40639;53.170;6.728;2023-12-28T01:00:00;5.78;;;3.13;;
54743;SDS011;40639;53.170;6.728;2023-12-28T01:02:27;7.65;;;3.10;;
54743;SDS011;40639;53.170;6.728;2023-12-28T01:04:53;6.65;;;2.75;;
54743;SDS011;40639;53.170;6.728;2023-12-28T01:07:19;5.35;;;3.00;;
54743;SDS011;40639;53.170;6.728;2023-12-28T01:09:45;4.95;;;3.10;;
54743;SDS011;40639;53.170;6.728;2023-12-28T01:12:11;5.38;;;2.70;;
54743;SDS011;40639;53.170;6.728;2023-12-28T01:14:37;5.50;;;2.83;;
54743;SDS011;40639;53.170;6.728;2023-12-28T01:17:04;8.45;;;3.50;;
54743;SDS011;40639;53.170;6.728;2023-12-28T01:19:30;5.90;;;2.92;;
54743;SDS011;40639;53.170;6.728;2023-12-28T01:21:57;6.05;;;4.18;;
54743;SDS011;40639;53.170;6.728;2023-12-28T01:24:23;6.95;;;3.00;;
54743;SDS011;40639;53.170;6.728;2023-12-28T01:26:50;6.63;;;3.20;;
54743;SDS011;40639;53.170;6.728;2023-12-28T01:29:16;5.93;;;3.10;;
54743;SDS011;40639;53.170;6.728;2023-12-28T01:31:42;5.25;;;2.72;;
54743;SDS011;40639;53.170;6.728;2023-12-28T01:34:09;6.60;;;3.78;;
54743;SDS011;40639;53.170;6.728;2023-12-28T01:36:35;9.23;;;3.10;;
54743;SDS011;40639;53.170;6.728;2023-12-28T01:39:01;6.97;;;2.83;;
54743;SDS011;40639;53.170;6.728;2023-12-28T01:41:28;6.03;;;2.42;;
54743;SDS011;40639;53.170;6.728;2023-12-28T01:43:54;7.72;;;3.30;;
54743;SDS011;40639;53.170;6.728;2023-12-28T01:46:20;8.70;;;3.58;;
54743;SDS011;40639;53.170;6.728;2023-12-28T01:48:48;9.30;;;3.05;;
54743;SDS011;40639;53.170;6.728;2023-12-28T01:51:14;7.50;;;2.58;;
54743;SDS011;40639;53.170;6.728;2023-12-28T01:53:41;6.50;;;2.90;;
54743;SDS011;40639;53.170;6.728;2023-12-28T01:56:08;5.38;;;2.70;;
54743;SDS011;40639;53.170;6.728;2023-12-28T01:58:34;6.28;;;2.67;;
54743;SDS011;40639;53.170;6.728;2023-12-28T02:01:01;8.02;;;3.20;;
54743;SDS011;40639;53.170;6.728;2023-12-28T02:03:27;5.53;;;2.67;;
54743;SDS011;40639;53.170;6.728;2023-12-28T02:05:54;6.25;;;2.50;;
54743;SDS011;40639;53.170;6.728;2023-12-28T02:08:20;7.03;;;2.58;;
54743;SDS011;40639;53.170;6.728;2023-12-28T02:10:47;5.85;;;2.97;;
54743;SDS011;40639;53.170;6.728;2023-12-28T02:13:13;9.02;;;3.50;;
54743;SDS011;40639;53.170;6.728;2023-12-28T02:15:39;6.65;;;2.60;;
54743;SDS011;40639;53.170;6.728;2023-12-28T02:18:09;7.72;;;3.05;;
54743;SDS011;40639;53.170;6.728;2023-12-28T02:20:38;4.85;;;2.58;;
54743;SDS011;40639;53.170;6.728;2023-12-28T02:23:04;5.78;;;2.78;;
54743;SDS011;40639;53.170;6.728;2023-12-28T02:25:31;8.32;;;2.83;;
54743;SDS011;40639;53.170;6.728;2023-12-28T02:27:57;5.85;;;2.50;;
54743;SDS011;40639;53.170;6.728;2023-12-28T02:30:23;7.80;;;2.58;;
54743;SDS011;40639;53.170;6.728;2023-12-28T02:38:05;6.10;;;2.40;;
54743;SDS011;40639;53.170;6.728;2023-12-28T02:40:33;6.38;;;2.83;;
54743;SDS011;40639;53.170;6.728;2023-12-28T02:43:03;7.40;;;2.88;;
54743;SDS011;40639;53.170;6.728;2023-12-28T02:45:29;6.22;;;2.25;;
54743;SDS011;40639;53.170;6.728;2023-12-28T02:47:55;10.95;;;2.80;;
54743;SDS011;40639;53.170;6.728;2023-12-28T02:50:21;7.47;;;2.80;;
54743;SDS011;40639;53.170;6.728;2023-12-28T02:52:47;12.10;;;3.20;;
54743;SDS011;40639;53.170;6.728;2023-12-28T02:55:13;7.65;;;2.65;;
54743;SDS011;40639;53.170;6.728;2023-12-28T02:57:39;9.50;;;3.08;;
54743;SDS011;40639;53.170;6.728;2023-12-28T03:00:06;7.10;;;2.58;;
54743;SDS011;40639;53.170;6.728;2023-12-28T03:02:34;7.60;;;3.08;;
54743;SDS011;40639;53.170;6.728;2023-12-28T03:05:01;5.90;;;2.17;;
54743;SDS011;40639;53.170;6.728;2023-12-28T03:07:27;8.70;;;3.03;;
54743;SDS011;40639;53.170;6.728;2023-12-28T03:09:53;7.90;;;2.20;;
54743;SDS011;40639;53.170;6.728;2023-12-28T03:12:19;6.88;;;1.95;;
54743;SDS011;40639;53.170;6.728;2023-12-28T03:14:45;9.75;;;3.03;;
54743;SDS011;40639;53.170;6.728;2023-12-28T03:17:12;6.65;;;2.28;;
54743;SDS011;40639;53.170;6.728;2023-12-28T03:19:38;9.40;;;2.67;;
54743;SDS011;40639;53.170;6.728;2023-12-28T03:22:05;6.28;;;2.53;;
54743;SDS011;40639;53.170;6.728;2023-12-28T03:24:31;9.15;;;2.28;;
54743;SDS011;40639;53.170;6.728;2023-12-28T03:26:57;7.38;;;2.85;;
54743;SDS011;40639;53.170;6.728;2023-12-28T03:29:23;7.70;;;2.10;;
54743;SDS011;40639;53.170;6.728;2023-12-28T03:31:50;7.07;;;2.50;;
54743;SDS011;40639;53.170;6.728;2023-12-28T03:34:16;8.43;;;2.50;;
54743;SDS011;40639;53.170;6.728;2023-12-28T03:36:42;10.32;;;2.50;;
54743;SDS011;40639;53.170;6.728;2023-12-28T03:39:08;9.27;;;3.05;;
54743;SDS011;40639;53.170;6.728;2023-12-28T03:41:35;8.65;;;2.30;;
54743;SDS011;40639;53.170;6.728;2023-12-28T03:44:01;7.90;;;2.30;;
54743;SDS011;40639;53.170;6.728;2023-12-28T03:46:27;6.40;;;2.28;;
54743;SDS011;40639;53.170;6.728;2023-12-28T03:48:53;5.13;;;2.85;;
54743;SDS011;40639;53.170;6.728;2023-12-28T03:51:19;6.63;;;2.42;;
54743;SDS011;40639;53.170;6.728;2023-12-28T03:53:45;6.57;;;2.50;;
54743;SDS011;40639;53.170;6.728;2023-12-28T03:56:21;5.30;;;1.98;;
54743;SDS011;40639;53.170;6.728;2023-12-28T03:58:48;7.63;;;2.85;;
54743;SDS011;40639;53.170;6.728;2023-12-28T04:01:14;6.32;;;2.10;;
54743;SDS011;40639;53.170;6.728;2023-12-28T04:03:40;7.90;;;1.92;;
54743;SDS011;40639;53.170;6.728;2023-12-28T04:06:06;3.47;;;2.03;;
54743;SDS011;40639;53.170;6.728;2023-12-28T04:08:33;6.50;;;2.45;;
54743;SDS011;40639;53.170;6.728;2023-12-28T04:10:59;6.07;;;1.92;;
54743;SDS011;40639;53.170;6.728;2023-12-28T04:13:25;4.80;;;1.90;;
54743;SDS011;40639;53.170;6.728;2023-12-28T04:15:51;7.57;;;2.40;;
54743;SDS011;40639;53.170;6.728;2023-12-28T04:18:17;6.50;;;2.00;;
54743;SDS011;40639;53.170;6.728;2023-12-28T04:20:43;6.28;;;2.33;;
54743;SDS011;40639;53.170;6.728;2023-12-28T04:23:10;4.82;;;2.20;;
54743;SDS011;40639;53.170;6.728;2023-12-28T04:25:36;5.50;;;1.98;;
54743;SDS011;40639;53.170;6.728;2023-12-28T04:28:02;6.18;;;2.25;;
54743;SDS011;40639;53.170;6.728;2023-12-28T04:30:28;11.02;;;2.42;;
54743;SDS011;40639;53.170;6.728;2023-12-28T04:32:54;8.90;;;2.53;;
54743;SDS011;40639;53.170;6.728;2023-12-28T04:35:21;8.25;;;1.90;;
54743;SDS011;40639;53.170;6.728;2023-12-28T04:37:47;6.63;;;2.45;;
54743;SDS011;40639;53.170;6.728;2023-12-28T04:40:13;8.63;;;2.30;;
54743;SDS011;40639;53.170;6.728;2023-12-28T04:42:42;9.27;;;2.45;;
54743;SDS011;40639;53.170;6.728;2023-12-28T04:45:08;9.13;;;2.33;;
54743;SDS011;40639;53.170;6.728;2023-12-28T04:47:38;15.43;;;2.60;;
54743;SDS011;40639;53.170;6.728;2023-12-28T04:50:04;11.57;;;3.03;;
54743;SDS011;40639;53.170;6.728;2023-12-28T04:52:31;10.57;;;2.38;;
54743;SDS011;40639;53.170;6.728;2023-12-28T04:54:57;9.23;;;2.58;;
54743;SDS011;40639;53.170;6.728;2023-12-28T04:57:23;8.07;;;2.47;;
54743;SDS011;40639;53.170;6.728;2023-12-28T04:59:53;7.00;;;2.00;;
54743;SDS011;40639;53.170;6.728;2023-12-28T05:02:19;11.73;;;2.53;;
54743;SDS011;40639;53.170;6.728;2023-12-28T05:04:46;6.45;;;2.28;;
54743;SDS011;40639;53.170;6.728;2023-12-28T05:07:12;10.30;;;2.53;;
54743;SDS011;40639;53.170;6.728;2023-12-28T05:09:38;9.65;;;2.80;;
54743;SDS011;40639;53.170;6.728;2023-12-28T05:12:04;6.28;;;2.38;;
54743;SDS011;40639;53.170;6.728;2023-12-28T05:14:30;6.63;;;2.47;;
54743;SDS011;40639;53.170;6.728;2023-12-28T05:16:56;8.95;;;2.17;;
54743;SDS011;40639;53.170;6.728;2023-12-28T05:19:22;12.32;;;2.58;;
54743;SDS011;40639;53.170;6.728;2023-12-28T05:21:48;8.25;;;2.95;;
54743;SDS011;40639;53.170;6.728;2023-12-28T05:24:14;6.50;;;2.40;;
54743;SDS011;40639;53.170;6.728;2023-12-28T05:26:41;7.85;;;1.85;;
54743;SDS011;40639;53.170;6.728;2023-12-28T05:29:07;6.78;;;2.17;;
54743;SDS011;40639;53.170;6.728;2023-12-28T05:31:33;10.82;;;2.30;;
54743;SDS011;40639;53.170;6.728;2023-12-28T05:33:59;6.28;;;2.15;;
54743;SDS011;40639;53.170;6.728;2023-12-28T05:36:25;8.75;;;2.53;;
54743;SDS011;40639;53.170;6.728;2023-12-28T05:38:51;11.02;;;2.50;;
54743;SDS011;40639;53.170;6.728;2023-12-28T05:41:17;7.07;;;2.45;;
54743;SDS011;40639;53.170;6.728;2023-12-28T05:43:44;7.43;;;3.00;;
54743;SDS011;40639;53.170;6.728;2023-12-28T05:46:10;10.73;;;2.17;;
54743;SDS011;40639;53.170;6.728;2023-12-28T05:48:36;14.02;;;3.15;;
54743;SDS011;40639;53.170;6.728;2023-12-28T05:51:02;10.65;;;2.28;;
54743;SDS011;40639;53.170;6.728;2023-12-28T05:53:28;11.70;;;2.97;;
54743;SDS011;40639;53.170;6.728;2023-12-28T05:55:54;13.63;;;2.33;;
54743;SDS011;40639;53.170;6.728;2023-12-28T05:58:20;7.93;;;2.20;;
54743;SDS011;40639;53.170;6.728;2023-12-28T06:00:47;7.13;;;2.70;;
54743;SDS011;40639;53.170;6.728;2023-12-28T06:03:13;8.30;;;2.20;;
54743;SDS011;40639;53.170;6.728;2023-12-28T06:05:39;7.03;;;2.17;;
54743;SDS011;40639;53.170;6.728;2023-12-28T06:08:06;10.40;;;2.45;;
54743;SDS011;40639;53.170;6.728;2023-12-28T06:10:32;8.35;;;2.20;;
54743;SDS011;40639;53.170;6.728;2023-12-28T06:12:58;8.93;;;2.30;;
54743;SDS011;40639;53.170;6.728;2023-12-28T06:15:24;7.18;;;2.35;;
54743;SDS011;40639;53.170;6.728;2023-12-28T06:17:50;7.50;;;2.25;;
54743;SDS011;40639;53.170;6.728;2023-12-28T06:20:17;11.82;;;2.38;;
54743;SDS011;40639;53.170;6.728;2023-12-28T06:22:44;11.82;;;2.50;;
54743;SDS011;40639;53.170;6.728;2023-12-28T06:25:13;8.60;;;2.47;;
54743;SDS011;40639;53.170;6.728;2023-12-28T06:27:40;11.23;;;2.47;;
54743;SDS011;40639;53.170;6.728;2023-12-28T06:30:06;11.10;;;3.17;;
54743;SDS011;40639;53.170;6.728;2023-12-28T06:32:32;7.88;;;2.08;;
54743;SDS011;40639;53.170;6.728;2023-12-28T06:34:58;11.68;;;2.67;;
54743;SDS011;40639;53.170;6.728;2023-12-28T06:37:24;11.02;;;2.17;;
54743;SDS011;40639;53.170;6.728;2023-12-28T06:39:51;7.63;;;2.30;;
54743;SDS011;40639;53.170;6.728;2023-12-28T06:42:17;9.63;;;2.08;;
54743;SDS011;40639;53.170;6.728;2023-12-28T06:44:43;10.77;;;2.03;;
54743;SDS011;40639;53.170;6.728;2023-12-28T06:47:09;11.32;;;2.47;;
54743;SDS011;40639;53.170;6.728;2023-12-28T06:49:35;9.38;;;2.47;;
54743;SDS011;40639;53.170;6.728;2023-12-28T06:52:01;9.18;;;2.40;;
54743;SDS011;40639;53.170;6.728;2023-12-28T06:54:27;10.52;;;2.15;;
54743;SDS011;40639;53.170;6.728;2023-12-28T06:56:53;9.38;;;2.20;;
54743;SDS011;40639;53.170;6.728;2023-12-28T06:59:20;9.30;;;2.30;;
54743;SDS011;40639;53.170;6.728;2023-12-28T07:01:46;8.90;;;2.13;;
54743;SDS011;40639;53.170;6.728;2023-12-28T07:04:13;15.40;;;3.08;;
54743;SDS011;40639;53.170;6.728;2023-12-28T07:06:39;9.82;;;2.78;;
54743;SDS011;40639;53.170;6.728;2023-12-28T07:09:05;9.95;;;2.38;;
54743;SDS011;40639;53.170;6.728;2023-12-28T07:11:32;6.57;;;2.53;;
54743;SDS011;40639;53.170;6.728;2023-12-28T07:13:58;9.63;;;2.88;;
54743;SDS011;40639;53.170;6.728;2023-12-28T07:16:24;9.50;;;2.38;;
54743;SDS011;40639;53.170;6.728;2023-12-28T07:18:51;12.75;;;2.53;;
54743;SDS011;40639;53.170;6.728;2023-12-28T07:21:18;12.50;;;3.55;;
54743;SDS011;40639;53.170;6.728;2023-12-28T07:23:44;11.57;;;2.33;;
54743;SDS011;40639;53.170;6.728;2023-12-28T07:26:14;10.40;;;2.03;;
54743;SDS011;40639;53.170;6.728;2023-12-28T07:28:40;15.20;;;2.40;;
54743;SDS011;40639;53.170;6.728;2023-12-28T07:31:10;9.00;;;2.30;;
54743;SDS011;40639;53.170;6.728;2023-12-28T07:33:36;9.18;;;2.13;;
54743;SDS011;40639;53.170;6.728;2023-12-28T07:36:02;11.10;;;3.22;;
54743;SDS011;40639;53.170;6.728;2023-12-28T07:38:31;10.77;;;2.35;;
54743;SDS011;40639;53.170;6.728;2023-12-28T07:40:57;12.50;;;3.00;;
54743;SDS011;40639;53.170;6.728;2023-12-28T07:43:23;15.05;;;3.05;;
54743;SDS011;40639;53.170;6.728;2023-12-28T07:45:50;10.93;;;2.85;;
54743;SDS011;40639;53.170;6.728;2023-12-28T07:48:16;9.15;;;2.97;;
54743;SDS011;40639;53.170;6.728;2023-12-28T07:50:42;11.27;;;2.17;;
54743;SDS011;40639;53.170;6.728;2023-12-28T07:53:08;14.98;;;2.78;;
54743;SDS011;40639;53.170;6.728;2023-12-28T07:55:34;11.70;;;3.03;;
54743;SDS011;40639;53.170;6.728;2023-12-28T07:58:00;12.20;;;2.88;;
54743;SDS011;40639;53.170;6.728;2023-12-28T08:00:26;14.55;;;3.08;;
54743;SDS011;40639;53.170;6.728;2023-12-28T08:02:53;12.65;;;2.63;;
54743;SDS011;40639;53.170;6.728;2023-12-28T08:05:19;14.48;;;4.00;;
54743;SDS011;40639;53.170;6.728;2023-12-28T08:07:45;11.18;;;2.70;;
54743;SDS011;40639;53.170;6.728;2023-12-28T08:10:11;16.10;;;3.75;;
54743;SDS011;40639;53.170;6.728;2023-12-28T08:12:37;12.82;;;2.80;;
54743;SDS011;40639;53.170;6.728;2023-12-28T08:15:04;10.15;;;3.00;;
54743;SDS011;40639;53.170;6.728;2023-12-28T08:17:30;19.25;;;3.33;;
54743;SDS011;40639;53.170;6.728;2023-12-28T08:19:56;12.18;;;2.65;;
54743;SDS011;40639;53.170;6.728;2023-12-28T08:22:22;15.32;;;3.35;;
54743;SDS011;40639;53.170;6.728;2023-12-28T08:24:49;9.65;;;3.55;;
54743;SDS011;40639;53.170;6.728;2023-12-28T08:27:15;15.75;;;4.32;;
54743;SDS011;40639;53.170;6.728;2023-12-28T08:29:41;11.15;;;3.30;;
54743;SDS011;40639;53.170;6.728;2023-12-28T08:32:07;16.45;;;3.28;;
54743;SDS011;40639;53.170;6.728;2023-12-28T08:34:33;13.77;;;3.38;;
54743;SDS011;40639;53.170;6.728;2023-12-28T08:36:59;18.38;;;3.10;;
54743;SDS011;40639;53.170;6.728;2023-12-28T08:39:26;10.90;;;2.92;;
54743;SDS011;40639;53.170;6.728;2023-12-28T08:41:52;17.90;;;3.50;;
54743;SDS011;40639;53.170;6.728;2023-12-28T08:44:18;16.20;;;3.60;;
54743;SDS011;40639;53.170;6.728;2023-12-28T08:46:45;20.40;;;3.60;;
54743;SDS011;40639;53.170;6.728;2023-12-28T08:49:11;15.98;;;3.58;;
54743;SDS011;40639;53.170;6.728;2023-12-28T08:51:37;15.05;;;3.40;;
54743;SDS011;40639;53.170;6.728;2023-12-28T08:54:03;12.35;;;3.15;;
54743;SDS011;40639;53.170;6.728;2023-12-28T08:56:29;16.50;;;4.03;;
54743;SDS011;40639;53.170;6.728;2023-12-28T08:58:55;12.77;;;3.30;;
54743;SDS011;40639;53.170;6.728;2023-12-28T09:01:22;15.95;;;4.40;;
54743;SDS011;40639;53.170;6.728;2023-12-28T09:03:50;15.52;;;3.53;;
54743;SDS011;40639;53.170;6.728;2023-12-28T09:06:16;17.73;;;2.92;;
54743;SDS011;40639;53.170;6.728;2023-12-28T09:08:43;16.48;;;2.80;;
54743;SDS011;40639;53.170;6.728;2023-12-28T09:11:13;16.63;;;3.67;;
54743;SDS011;40639;53.170;6.728;2023-12-28T09:13:39;18.98;;;4.07;;
54743;SDS011;40639;53.170;6.728;2023-12-28T09:16:07;16.60;;;3.28;;
54743;SDS011;40639;53.170;6.728;2023-12-28T09:18:33;11.38;;;3.22;;
54743;SDS011;40639;53.170;6.728;2023-12-28T09:21:02;18.40;;;3.15;;
54743;SDS011;40639;53.170;6.728;2023-12-28T09:23:28;13.18;;;3.33;;
54743;SDS011;40639;53.170;6.728;2023-12-28T09:25:54;17.75;;;3.60;;
54743;SDS011;40639;53.170;6.728;2023-12-28T09:28:20;14.95;;;3.10;;
54743;SDS011;40639;53.170;6.728;2023-12-28T09:30:47;13.43;;;3.70;;
54743;SDS011;40639;53.170;6.728;2023-12-28T09:33:13;15.98;;;3.50;;
54743;SDS011;40639;53.170;6.728;2023-12-28T09:35:41;16.80;;;3.75;;
54743;SDS011;40639;53.170;6.728;2023-12-28T09:38:07;14.55;;;3.05;;
54743;SDS011;40639;53.170;6.728;2023-12-28T09:40:35;13.27;;;3.80;;
54743;SDS011;40639;53.170;6.728;2023-12-28T09:43:09;16.13;;;4.13;;
54743;SDS011;40639;53.170;6.728;2023-12-28T09:45:39;12.32;;;2.90;;
54743;SDS011;40639;53.170;6.728;2023-12-28T09:48:05;15.98;;;3.20;;
54743;SDS011;40639;53.170;6.728;2023-12-28T09:50:32;16.05;;;3.50;;
54743;SDS011;40639;53.170;6.728;2023-12-28T09:52:58;13.75;;;3.17;;
54743;SDS011;40639;53.170;6.728;2023-12-28T09:55:24;17.30;;;3.70;;
54743;SDS011;40639;53.170;6.728;2023-12-28T09:57:51;13.05;;;3.03;;
54743;SDS011;40639;53.170;6.728;2023-12-28T10:00:17;14.30;;;3.55;;
54743;SDS011;40639;53.170;6.728;2023-12-28T10:02:44;18.52;;;3.05;;
54743;SDS011;40639;53.170;6.728;2023-12-28T10:05:13;17.63;;;3.80;;
54743;SDS011;40639;53.170;6.728;2023-12-28T10:07:40;12.23;;;3.28;;
54743;SDS011;40639;53.170;6.728;2023-12-28T10:10:07;15.27;;;3.38;;
54743;SDS011;40639;53.170;6.728;2023-12-28T10:12:34;17.15;;;3.15;;
54743;SDS011;40639;53.170;6.728;2023-12-28T10:15:00;12.18;;;3.55;;
54743;SDS011;40639;53.170;6.728;2023-12-28T10:17:26;13.70;;;3.22;;
54743;SDS011;40639;53.170;6.728;2023-12-28T10:19:53;19.08;;;3.30;;
54743;SDS011;40639;53.170;6.728;2023-12-28T10:22:21;13.98;;;2.60;;
54743;SDS011;40639;53.170;6.728;2023-12-28T10:24:47;12.02;;;3.25;;
54743;SDS011;40639;53.170;6.728;2023-12-28T10:27:13;20.83;;;4.43;;
54743;SDS011;40639;53.170;6.728;2023-12-28T10:29:39;15.77;;;3.55;;
54743;SDS011;40639;53.170;6.728;2023-12-28T10:32:06;19.38;;;3.45;;
54743;SDS011;40639;53.170;6.728;2023-12-28T10:34:32;13.07;;;3.33;;
54743;SDS011;40639;53.170;6.728;2023-12-28T10:36:59;22.50;;;3.47;;
54743;SDS011;40639;53.170;6.728;2023-12-28T10:39:27;15.00;;;4.03;;
54743;SDS011;40639;53.170;6.728;2023-12-28T10:41:55;12.50;;;3.67;;
54743;SDS011;40639;53.170;6.728;2023-12-28T10:44:21;16.02;;;4.43;;
54743;SDS011;40639;53.170;6.728;2023-12-28T10:46:50;17.52;;;3.58;;
54743;SDS011;40639;53.170;6.728;2023-12-28T10:49:16;13.23;;;3.38;;
54743;SDS011;40639;53.170;6.728;2023-12-28T10:51:43;12.25;;;3.17;;
54743;SDS011;40639;53.170;6.728;2023-12-28T10:56:47;13.02;;;3.17;;
54743;SDS011;40639;53.170;6.728;2023-12-28T11:01:42;14.68;;;2.90;;
54743;SDS011;40639;53.170;6.728;2023-12-28T11:04:12;16.02;;;4.30;;
54743;SDS011;40639;53.170;6.728;2023-12-28T11:06:41;14.77;;;3.63;;
54743;SDS011;40639;53.170;6.728;2023-12-28T11:09:08;20.27;;;3.53;;
54743;SDS011;40639;53.170;6.728;2023-12-28T11:11:36;15.73;;;4.03;;
54743;SDS011;40639;53.170;6.728;2023-12-28T11:14:02;13.63;;;3.83;;
54743;SDS011;40639;53.170;6.728;2023-12-28T11:16:29;17.35;;;3.53;;
54743;SDS011;40639;53.170;6.728;2023-12-28T11:18:56;13.30;;;3.95;;
54743;SDS011;40639;53.170;6.728;2023-12-28T11:21:22;13.95;;;3.88;;
54743;SDS011;40639;53.170;6.728;2023-12-28T11:23:49;12.02;;;2.92;;
54743;SDS011;40639;53.170;6.728;2023-12-28T11:26:19;14.98;;;3.60;;
54743;SDS011;40639;53.170;6.728;2023-12-28T11:28:45;16.83;;;3.22;;
54743;SDS011;40639;53.170;6.728;2023-12-28T11:31:15;14.43;;;3.47;;
54743;SDS011;40639;53.170;6.728;2023-12-28T11:33:50;14.18;;;3.50;;
54743;SDS011;40639;53.170;6.728;2023-12-28T11:36:25;16.45;;;3.10;;
54743;SDS011;40639;53.170;6.728;2023-12-28T11:38:52;10.57;;;3.22;;
54743;SDS011;40639;53.170;6.728;2023-12-28T11:41:20;13.18;;;3.80;;
54743;SDS011;40639;53.170;6.728;2023-12-28T11:43:55;15.05;;;3.63;;
54743;SDS011;40639;53.170;6.728;2023-12-28T11:46:21;13.23;;;3.25;;
54743;SDS011;40639;53.170;6.728;2023-12-28T11:48:48;16.65;;;4.25;;
54743;SDS011;40639;53.170;6.728;2023-12-28T11:51:14;15.85;;;3.30;;
54743;SDS011;40639;53.170;6.728;2023-12-28T11:53:42;15.55;;;3.85;;
54743;SDS011;40639;53.170;6.728;2023-12-28T11:56:09;12.45;;;3.67;;
54743;SDS011;40639;53.170;6.728;2023-12-28T11:58:36;14.77;;;3.40;;
54743;SDS011;40639;53.170;6.728;2023-12-28T12:01:02;11.88;;;3.10;;
54743;SDS011;40639;53.170;6.728;2023-12-28T12:03:28;12.43;;;3.35;;
54743;SDS011;40639;53.170;6.728;2023-12-28T12:05:55;17.48;;;3.53;;
54743;SDS011;40639;53.170;6.728;2023-12-28T12:08:24;14.32;;;3.30;;
54743;SDS011;40639;53.170;6.728;2023-12-28T12:11:04;16.30;;;3.10;;
54743;SDS011;40639;53.170;6.728;2023-12-28T12:13:31;13.35;;;3.97;;
54743;SDS011;40639;53.170;6.728;2023-12-28T12:15:57;14.65;;;3.55;;
54743;SDS011;40639;53.170;6.728;2023-12-28T12:18:24;18.58;;;3.45;;
54743;SDS011;40639;53.170;6.728;2023-12-28T12:20:51;14.80;;;4.47;;
54743;SDS011;40639;53.170;6.728;2023-12-28T12:23:17;17.85;;;3.55;;
54743;SDS011;40639;53.170;6.728;2023-12-28T12:25:43;18.10;;;4.65;;
54743;SDS011;40639;53.170;6.728;2023-12-28T12:28:10;12.10;;;3.72;;
54743;SDS011;40639;53.170;6.728;2023-12-28T12:30:37;13.55;;;4.63;;
54743;SDS011;40639;53.170;6.728;2023-12-28T12:33:03;13.15;;;3.42;;
54743;SDS011;40639;53.170;6.728;2023-12-28T12:35:29;16.92;;;3.47;;
54743;SDS011;40639;53.170;6.728;2023-12-28T12:37:56;15.02;;;3.78;;
54743;SDS011;40639;53.170;6.728;2023-12-28T12:40:22;18.00;;;4.00;;
54743;SDS011;40639;53.170;6.728;2023-12-28T12:42:54;16.73;;;3.40;;
54743;SDS011;40639;53.170;6.728;2023-12-28T12:45:21;19.95;;;3.90;;
54743;SDS011;40639;53.170;6.728;2023-12-28T12:47:48;13.85;;;4.20;;
54743;SDS011;40639;53.170;6.728;2023-12-28T12:50:15;14.60;;;3.35;;
54743;SDS011;40639;53.170;6.728;2023-12-28T12:52:42;12.88;;;3.63;;
54743;SDS011;40639;53.170;6.728;2023-12-28T12:55:13;16.25;;;3.80;;
54743;SDS011;40639;53.170;6.728;2023-12-28T12:57:39;19.40;;;4.45;;
54743;SDS011;40639;53.170;6.728;2023-12-28T13:00:06;18.33;;;3.60;;
54743;SDS011;40639;53.170;6.728;2023-12-28T13:02:34;10.07;;;2.65;;
54743;SDS011;40639;53.170;6.728;2023-12-28T13:05:04;16.98;;;3.67;;
54743;SDS011;40639;53.170;6.728;2023-12-28T13:07:31;12.95;;;3.72;;
54743;SDS011;40639;53.170;6.728;2023-12-28T13:09:57;18.63;;;4.13;;
54743;SDS011;40639;53.170;6.728;2023-12-28T13:12:23;11.90;;;3.50;;
54743;SDS011;40639;53.170;6.728;2023-12-28T13:14:50;15.70;;;3.30;;
54743;SDS011;40639;53.170;6.728;2023-12-28T13:17:16;20.08;;;3.70;;
54743;SDS011;40639;53.170;6.728;2023-12-28T13:19:42;15.27;;;3.28;;
54743;SDS011;40639;53.170;6.728;2023-12-28T13:22:08;16.05;;;3.78;;
54743;SDS011;40639;53.170;6.728;2023-12-28T13:24:35;13.77;;;2.88;;
54743;SDS011;40639;53.170;6.728;2023-12-28T13:27:01;22.90;;;3.92;;
54743;SDS011;40639;53.170;6.728;2023-12-28T13:29:28;15.05;;;3.03;;
54743;SDS011;40639;53.170;6.728;2023-12-28T13:31:55;14.00;;;3.30;;
54743;SDS011;40639;53.170;6.728;2023-12-28T13:34:21;13.88;;;3.33;;
54743;SDS011;40639;53.170;6.728;2023-12-28T13:36:48;9.57;;;2.83;;
54743;SDS011;40639;53.170;6.728;2023-12-28T13:39:14;22.33;;;4.55;;
54743;SDS011;40639;53.170;6.728;2023-12-28T13:41:41;14.23;;;4.20;;
54743;SDS011;40639;53.170;6.728;2023-12-28T13:44:07;13.77;;;3.40;;
54743;SDS011;40639;53.170;6.728;2023-12-28T13:46:37;16.25;;;3.90;;
54743;SDS011;40639;53.170;6.728;2023-12-28T13:49:03;12.90;;;4.15;;
54743;SDS011;40639;53.170;6.728;2023-12-28T13:51:30;20.10;;;4.53;;
54743;SDS011;40639;53.170;6.728;2023-12-28T13:53:56;17.17;;;4.30;;
54743;SDS011;40639;53.170;6.728;2023-12-28T13:56:22;14.77;;;3.67;;
54743;SDS011;40639;53.170;6.728;2023-12-28T13:58:48;15.27;;;3.05;;
54743;SDS011;40639;53.170;6.728;2023-12-28T14:01:14;23.75;;;4.30;;
54743;SDS011;40639;53.170;6.728;2023-12-28T14:03:41;14.32;;;3.40;;
54743;SDS011;40639;53.170;6.728;2023-12-28T14:06:07;18.92;;;4.00;;
54743;SDS011;40639;53.170;6.728;2023-12-28T14:08:34;17.50;;;3.60;;
54743;SDS011;40639;53.170;6.728;2023-12-28T14:11:01;12.13;;;3.13;;
54743;SDS011;40639;53.170;6.728;2023-12-28T14:13:27;15.00;;;3.38;;
54743;SDS011;40639;53.170;6.728;2023-12-28T14:15:53;13.02;;;3.08;;
54743;SDS011;40639;53.170;6.728;2023-12-28T14:18:21;12.88;;;3.65;;
54743;SDS011;40639;53.170;6.728;2023-12-28T14:20:47;14.65;;;3.92;;
54743;SDS011;40639;53.170;6.728;2023-12-28T14:23:13;10.57;;;3.22;;
54743;SDS011;40639;53.170;6.728;2023-12-28T14:25:40;19.20;;;3.40;;
54743;SDS011;40639;53.170;6.728;2023-12-28T14:28:06;8.82;;;3.55;;
54743;SDS011;40639;53.170;6.728;2023-12-28T14:30:33;12.88;;;3.67;;
54743;SDS011;40639;53.170;6.728;2023-12-28T14:32:59;15.95;;;3.60;;
54743;SDS011;40639;53.170;6.728;2023-12-28T14:35:25;16.70;;;3.88;;
54743;SDS011;40639;53.170;6.728;2023-12-28T14:37:51;14.13;;;4.45;;
54743;SDS011;40639;53.170;6.728;2023-12-28T14:40:18;17.30;;;3.55;;
54743;SDS011;40639;53.170;6.728;2023-12-28T14:42:44;12.75;;;3.83;;
54743;SDS011;40639;53.170;6.728;2023-12-28T14:45:10;11.60;;;3.40;;
54743;SDS011;40639;53.170;6.728;2023-12-28T14:47:37;18.45;;;3.50;;